Time;durP1;ratioP1;P1;durP2;ratioP2;P2;SDS_P1;SDS_P2;PMS_P1;PMS_P2;Temp;Humidity;BMP_temperature;BMP_pressure;BME280_temperature;BME280_humidity;BME280_pressure;Samples;Min_cycle;Max_cycle;Signal;HPM_P1;HPM_P2
2021/05/27 00:01:19;;;;;;;0.20;0.20;;;;;;;8.48;86.15;100088.84;5043599;28;20060;-86
2021/05/27 00:03:56;;;;;;;0.20;0.20;;;;;;;8.49;86.51;100085.03;5055412;28;20525;-85
2021/05/27 00:06:29;;;;;;;0.25;0.25;;;;;;;8.51;85.14;100083.66;5045342;28;20661;-86
2021/05/27 00:09:02;;;;;;;0.40;0.30;;;;;;;8.34;86.34;100088.59;5065873;28;20048;-86
2021/05/27 00:11:31;;;;;;;0.30;0.30;;;;;;;8.26;85.25;100087.28;5073155;28;20049;-86
2021/05/27 00:15:07;;;;;;;0.20;0.20;;;;;;;8.16;85.31;100093.56;5048093;28;20690;-87
2021/05/27 00:17:35;;;;;;;0.17;0.17;;;;;;;7.75;86.49;100028.72;5037131;28;20046;-87
2021/05/27 00:20:11;;;;;;;0.30;0.20;;;;;;;8.13;85.94;100082.47;5062381;28;20045;-86
2021/05/27 00:22:39;;;;;;;0.20;0.20;;;;;;;8.14;86.19;100068.63;5040080;28;20052;-86
2021/05/27 00:25:13;;;;;;;0.30;0.30;;;;;;;8.24;86.39;100083.25;5043199;28;20048;-86
2021/05/27 00:27:55;;;;;;;0.20;0.20;;;;;;;8.26;85.69;100081.88;5036237;28;20056;-86
2021/05/27 00:30:54;;;;;;;0.82;0.30;;;;;;;8.28;86.11;100078.88;5058737;28;20056;-86
2021/05/27 00:33:33;;;;;;;0.30;0.30;;;;;;;8.31;84.91;100086.44;5049014;28;20143;-87
2021/05/27 00:36:07;;;;;;;0.20;0.20;;;;;;;8.17;85.35;100054.56;5055610;28;20056;-86
2021/05/27 00:38:44;;;;;;;0.20;0.20;;;;;;;8.25;85.47;100074.03;5044360;28;20045;-86
2021/05/27 00:41:17;;;;;;;0.20;0.20;;;;;;;8.25;86.05;100063.97;5033630;28;20128;-87
2021/05/27 00:43:45;;;;;;;0.40;0.20;;;;;;;8.35;86.27;100084.81;5045817;28;20068;-86
2021/05/27 00:46:17;;;;;;;0.20;0.20;;;;;;;8.36;85.53;100088.34;5065959;28;20053;-86
2021/05/27 00:49:00;;;;;;;0.30;0.30;;;;;;;8.36;85.78;100085.63;5059064;28;20044;-87
2021/05/27 00:51:29;;;;;;;0.20;0.20;;;;;;;8.31;85.30;100092.69;5045093;28;20052;-86
2021/05/27 00:58:18;;;;;;;0.20;0.20;;;;;;;8.26;86.19;100087.28;5057847;28;20044;-87
2021/05/27 01:00:51;;;;;;;0.30;0.30;;;;;;;8.36;85.95;100086.44;5064798;28;20044;-86
2021/05/27 01:04:21;;;;;;;0.20;0.20;;;;;;;8.31;86.66;100090.00;5034261;28;20386;-86
2021/05/27 01:06:55;;;;;;;0.68;0.40;;;;;;;8.05;85.92;100053.25;5038840;28;20046;-88
2021/05/27 01:09:28;;;;;;;0.20;0.20;;;;;;;8.24;86.77;100091.38;5033701;28;20045;-86
2021/05/27 01:12:00;;;;;;;0.30;0.20;;;;;;;8.18;86.92;100067.00;5044674;28;20045;-85
2021/05/27 01:17:43;;;;;;;0.25;0.25;;;;;;;8.37;86.38;100089.94;5033891;28;20047;-87
2021/05/27 01:20:19;;;;;;;0.55;0.32;;;;;;;8.30;86.15;100080.22;5058616;28;20057;-87
2021/05/27 01:22:47;;;;;;;0.20;0.20;;;;;;;8.24;86.70;100088.66;5049254;28;20398;-87
2021/05/27 01:25:20;;;;;;;0.20;0.20;;;;;;;8.25;86.43;100082.16;5051059;28;20060;-87
2021/05/27 01:27:53;;;;;;;0.20;0.20;;;;;;;8.10;86.87;100073.00;5044411;28;20052;-88
2021/05/27 01:30:21;;;;;;;;;;;;;;;8.21;86.83;100084.59;5050582;28;20045;-88
2021/05/27 01:32:54;;;;;;;0.20;0.20;;;;;;;8.15;86.94;100083.03;5059733;28;20297;-87
2021/05/27 01:35:27;;;;;;;0.20;0.20;;;;;;;8.29;86.55;100083.22;5051315;28;20061;-87
2021/05/27 01:38:11;;;;;;;0.30;0.30;;;;;;;8.23;86.63;100068.88;5043264;28;20041;-88
2021/05/27 01:45:06;;;;;;;0.20;0.20;;;;;;;8.25;86.40;100074.81;5070157;28;20059;-87
2021/05/27 01:47:35;;;;;;;0.20;0.20;;;;;;;8.15;85.48;100048.59;5061823;28;20064;-88
2021/05/27 01:50:19;;;;;;;0.30;0.30;;;;;;;8.29;86.74;100080.50;5032748;28;20076;-88
2021/05/27 01:52:56;;;;;;;0.28;0.28;;;;;;;8.30;86.13;100087.53;5048026;28;20053;-86
2021/05/27 01:55:59;;;;;;;0.37;0.30;;;;;;;8.31;86.18;100083.75;5047142;28;20060;-87
2021/05/27 01:58:32;;;;;;;0.20;0.20;;;;;;;8.25;86.69;100093.78;5032735;28;20053;-88
2021/05/27 02:01:02;;;;;;;0.30;0.30;;;;;;;8.12;86.70;100075.41;5044306;28;20057;-87
2021/05/27 02:03:34;;;;;;;0.80;0.38;;;;;;;8.18;86.30;100088.69;5069020;28;20497;-88
2021/05/27 02:06:15;;;;;;;0.30;0.30;;;;;;;8.17;86.81;100087.06;5061708;28;20071;-87
2021/05/27 02:09:07;;;;;;;0.30;0.30;;;;;;;8.12;86.84;100065.41;5066458;28;20044;-87
2021/05/27 02:11:49;;;;;;;0.38;0.30;;;;;;;8.00;86.33;100051.38;5048167;28;20057;-87
2021/05/27 02:18:41;;;;;;;0.30;0.30;;;;;;;8.25;87.45;100082.97;5067179;28;20396;-87
2021/05/27 02:21:14;;;;;;;0.30;0.30;;;;;;;7.93;87.00;100040.03;5037413;28;20041;-87
2021/05/27 02:23:52;;;;;;;0.25;0.25;;;;;;;8.23;86.52;100087.03;5044549;28;20060;-87
2021/05/27 02:26:27;;;;;;;0.20;0.20;;;;;;;8.13;86.29;100077.06;5053628;28;20041;-87
2021/05/27 02:29:12;;;;;;;0.45;0.38;;;;;;;8.20;86.21;100079.47;5041813;28;20049;-87
2021/05/27 02:31:47;;;;;;;0.52;0.30;;;;;;;8.14;86.42;100067.84;5050351;28;20042;-88
2021/05/27 02:34:59;;;;;;;0.32;0.30;;;;;;;8.32;85.60;100090.78;5051815;28;20144;-87
2021/05/27 02:37:32;;;;;;;0.20;0.20;;;;;;;8.36;86.79;100082.91;5032235;28;20417;-86
2021/05/27 02:40:08;;;;;;;0.20;0.20;;;;;;;8.17;86.09;100059.97;5043459;28;20060;-86
2021/05/27 02:42:43;;;;;;;0.30;0.30;;;;;;;8.17;85.82;100070.81;5050019;28;20041;-86
2021/05/27 02:45:45;;;;;;;0.30;0.30;;;;;;;8.37;86.39;100092.66;5045959;28;20524;-87
2021/05/27 02:48:14;;;;;;;0.20;0.20;;;;;;;8.28;85.72;100087.00;5045484;28;20405;-86
2021/05/27 02:50:55;;;;;;;0.40;0.40;;;;;;;8.35;85.52;100087.50;5050575;28;20048;-85
2021/05/27 02:53:29;;;;;;;0.32;0.25;;;;;;;8.37;85.94;100098.06;5073211;28;20051;-86
2021/05/27 02:56:05;;;;;;;0.25;0.25;;;;;;;8.08;86.88;100053.50;5050135;28;20045;-86
2021/05/27 02:58:39;;;;;;;0.75;0.40;;;;;;;8.19;86.98;100078.66;5031288;28;20049;-87
2021/05/27 03:05:23;;;;;;;0.20;0.20;;;;;;;8.16;87.01;100080.03;5058242;28;20047;-86
2021/05/27 03:07:56;;;;;;;0.40;0.25;;;;;;;7.92;87.28;100049.25;5057668;28;20046;-86
2021/05/27 03:10:29;;;;;;;0.20;0.20;;;;;;;8.03;86.96;100077.91;5055353;28;20057;-87
2021/05/27 03:12:57;;;;;;;0.20;0.20;;;;;;;8.13;87.57;100088.72;5043592;28;20056;-86
2021/05/27 03:15:33;;;;;;;0.20;0.20;;;;;;;8.10;87.28;100085.75;5064344;28;20055;-87
2021/05/27 03:18:03;;;;;;;0.45;0.35;;;;;;;8.02;88.67;100080.91;5065389;28;20492;-87
2021/05/27 03:20:39;;;;;;;0.30;0.28;;;;;;;8.10;87.39;100089.25;5044120;28;20061;-86
2021/05/27 03:23:11;;;;;;;0.40;0.38;;;;;;;8.03;88.19;100088.75;5049318;28;20045;-86
2021/05/27 03:25:41;;;;;;;0.38;0.30;;;;;;;8.09;88.19;100094.94;5061493;28;20402;-86
2021/05/27 03:28:14;;;;;;;0.30;0.30;;;;;;;7.93;87.94;100059.78;5047658;28;20046;-85
2021/05/27 03:30:46;;;;;;;0.38;0.38;;;;;;;7.97;88.42;100093.38;5054591;28;20041;-84
2021/05/27 03:33:32;;;;;;;0.30;0.30;;;;;;;7.93;88.79;100078.75;5047162;28;20056;-84
2021/05/27 03:36:07;;;;;;;0.85;0.40;;;;;;;8.01;89.21;100090.94;5031850;28;20042;-85
2021/05/27 03:38:36;;;;;;;0.30;0.30;;;;;;;7.99;89.09;100093.91;5034641;28;20045;-86
2021/05/27 03:41:10;;;;;;;0.30;0.30;;;;;;;8.15;88.19;100091.94;5036933;28;20050;-85
2021/05/27 03:43:43;;;;;;;0.57;0.30;;;;;;;8.06;89.16;100090.09;5031233;28;20061;-85
2021/05/27 03:46:17;;;;;;;0.22;0.20;;;;;;;7.99;89.47;100088.47;5044546;28;20048;-85
2021/05/27 03:48:50;;;;;;;0.52;0.30;;;;;;;7.98;88.78;100096.88;5059979;28;20496;-86
2021/05/27 03:51:25;;;;;;;0.30;0.30;;;;;;;7.96;89.62;100096.38;5041073;28;20492;-85
2021/05/27 03:53:58;;;;;;;0.30;0.30;;;;;;;7.93;88.70;100094.22;5045393;28;20041;-84
2021/05/27 04:00:43;;;;;;;0.22;0.22;;;;;;;7.97;89.30;100104.22;5052640;28;20053;-86
2021/05/27 04:03:27;;;;;;;0.57;0.40;;;;;;;7.79;89.87;100102.13;5037534;28;20040;-85
2021/05/27 04:08:52;;;;;;;0.20;0.20;;;;;;;7.81;88.31;100098.03;5061191;28;20134;-85
2021/05/27 04:11:24;;;;;;;0.30;0.25;;;;;;;7.80;88.73;100099.13;5050453;28;20042;-85
2021/05/27 04:13:52;;;;;;;0.30;0.30;;;;;;;7.80;87.81;100103.72;5039880;28;20061;-85
2021/05/27 04:16:25;;;;;;;0.30;0.30;;;;;;;7.86;89.26;100116.19;5043049;28;20061;-80
2021/05/27 04:18:57;;;;;;;;;;;;;;;7.84;87.72;100102.09;5047674;28;20056;-84
2021/05/27 04:21:25;;;;;;;0.20;0.20;;;;;;;7.74;89.36;100105.63;5055399;28;20372;-85
2021/05/27 04:23:59;;;;;;;0.30;0.30;;;;;;;7.65;89.74;100097.28;5055434;28;20042;-84
2021/05/27 04:26:31;;;;;;;0.30;0.30;;;;;;;7.77;88.67;100104.28;5053530;28;20048;-85
2021/05/27 04:29:09;;;;;;;0.40;0.20;;;;;;;7.55;89.02;100075.63;5040285;28;20041;-85
2021/05/27 04:31:42;;;;;;;0.30;0.30;;;;;;;7.77;89.35;100101.56;5059514;28;20051;-85
2021/05/27 04:34:10;;;;;;;0.35;0.30;;;;;;;7.64;89.96;100095.63;5050953;28;20420;-85
2021/05/27 04:36:45;;;;;;;0.30;0.30;;;;;;;7.63;89.12;100076.97;5052720;28;20527;-85
2021/05/27 04:39:42;;;;;;;0.20;0.20;;;;;;;7.72;88.56;100099.69;5051476;28;20045;-84
2021/05/27 04:42:35;;;;;;;0.20;0.20;;;;;;;7.68;89.62;100095.09;5034723;28;20548;-85
2021/05/27 04:45:14;;;;;;;0.22;0.22;;;;;;;7.75;89.43;100091.00;5049747;28;20504;-85
2021/05/27 04:47:47;;;;;;;0.40;0.40;;;;;;;7.65;89.56;100091.03;5059695;28;20037;-85
2021/05/27 04:50:16;;;;;;;0.30;0.22;;;;;;;7.77;89.13;100099.66;5050389;28;20060;-84
2021/05/27 04:52:49;;;;;;;0.22;0.20;;;;;;;7.78;89.59;100097.78;5038811;28;20052;-85
2021/05/27 04:55:23;;;;;;;0.40;0.30;;;;;;;7.77;89.22;100083.41;5071772;28;20056;-85
2021/05/27 04:57:56;;;;;;;0.25;0.25;;;;;;;7.80;88.53;100082.06;5049646;28;20050;-85
2021/05/27 05:00:24;;;;;;;;;;;;;;;7.81;88.82;100100.72;5058708;28;20053;-85
2021/05/27 05:03:08;;;;;;;0.30;0.30;;;;;;;7.72;89.31;100105.13;5053817;28;19944;-85
2021/05/27 05:05:42;;;;;;;0.20;0.20;;;;;;;7.58;88.77;100087.78;5043207;28;20477;-84
2021/05/27 05:08:15;;;;;;;0.38;0.38;;;;;;;7.66;89.48;100098.91;5037838;28;20405;-84
2021/05/27 05:10:48;;;;;;;0.20;0.20;;;;;;;7.55;88.82;100097.28;5041848;28;20049;-84
2021/05/27 05:13:21;;;;;;;1.13;0.30;;;;;;;7.73;90.42;100111.34;5065905;28;20052;-85
2021/05/27 05:15:49;;;;;;;0.32;0.30;;;;;;;7.67;90.23;100110.53;5051135;28;20512;-85
2021/05/27 05:18:17;;;;;;;0.20;0.20;;;;;;;7.62;89.44;100105.94;5071646;28;20049;-84
2021/05/27 05:20:48;;;;;;;0.20;0.20;;;;;;;7.70;88.71;100117.31;5044158;28;20071;-85
2021/05/27 05:23:28;;;;;;;0.30;0.30;;;;;;;7.78;88.32;100122.16;5044393;28;20061;-84
2021/05/27 05:26:19;;;;;;;0.20;0.20;;;;;;;7.81;88.35;100129.72;5036311;28;20048;-86
2021/05/27 05:28:51;;;;;;;0.20;0.20;;;;;;;7.81;89.58;100121.59;5049251;28;20147;-85
2021/05/27 05:31:24;;;;;;;0.20;0.20;;;;;;;7.43;88.93;100065.09;5040615;28;20045;-84
2021/05/27 05:34:03;;;;;;;0.20;0.20;;;;;;;7.78;89.65;100111.31;5050597;28;20494;-85
2021/05/27 05:36:31;;;;;;;0.20;0.20;;;;;;;7.98;88.96;100124.81;5044011;28;20052;-85
2021/05/27 05:39:04;;;;;;;0.20;0.20;;;;;;;7.87;88.84;100111.56;5039097;28;20046;-84
2021/05/27 05:41:38;;;;;;;0.30;0.30;;;;;;;7.88;88.40;100116.69;5065264;28;20056;-85
2021/05/27 05:44:37;;;;;;;0.40;0.40;;;;;;;8.07;88.38;100129.66;5072419;28;20683;-85
2021/05/27 05:47:31;;;;;;;0.47;0.32;;;;;;;8.09;87.88;100122.06;5043406;28;20041;-85
2021/05/27 05:50:05;;;;;;;0.28;0.28;;;;;;;7.86;89.72;100067.41;5049699;28;20041;-85
2021/05/27 05:52:38;;;;;;;0.30;0.30;;;;;;;8.20;88.27;100133.66;5045396;28;20056;-85
2021/05/27 05:55:07;;;;;;;0.20;0.20;;;;;;;8.08;88.49;100113.13;5034636;28;20053;-86
2021/05/27 05:57:41;;;;;;;0.30;0.30;;;;;;;7.97;87.87;100098.00;5040036;28;20053;-86
2021/05/27 06:00:15;;;;;;;0.40;0.40;;;;;;;8.07;87.84;100113.41;5042207;28;20041;-85
2021/05/27 06:02:47;;;;;;;0.25;0.25;;;;;;;8.32;88.13;100148.53;5038756;28;20064;-85
2021/05/27 06:05:36;;;;;;;0.35;0.30;;;;;;;8.26;88.12;100127.13;5044847;28;20985;-86
2021/05/27 06:08:37;;;;;;;1.10;0.30;;;;;;;8.46;88.52;100140.63;5035514;28;20052;-85
2021/05/27 06:11:10;;;;;;;0.30;0.30;;;;;;;8.48;88.45;100154.72;5040086;28;20382;-86
2021/05/27 06:13:38;;;;;;;;;;;;;;;8.60;88.23;100153.59;5039375;28;20058;-85
2021/05/27 06:16:06;;;;;;;0.35;0.30;;;;;;;8.44;88.62;100134.66;5041511;28;19921;-89
2021/05/27 06:18:39;;;;;;;0.40;0.30;;;;;;;8.69;87.39;100160.06;5044012;28;20046;-86
2021/05/27 06:21:35;;;;;;;0.30;0.30;;;;;;;8.68;87.45;100169.28;5034437;28;20037;-87
2021/05/27 06:24:09;;;;;;;0.68;0.32;;;;;;;8.62;89.06;100160.34;5042419;28;20044;-87
2021/05/27 06:27:11;;;;;;;0.30;0.30;;;;;;;8.53;86.83;100172.06;5050697;28;20049;-86
2021/05/27 06:29:45;;;;;;;0.20;0.20;;;;;;;8.33;87.19;100135.78;5052866;28;20048;-86
2021/05/27 06:33:12;;;;;;;0.30;0.30;;;;;;;8.58;88.40;100183.69;5046935;28;20058;-86
2021/05/27 06:36:38;;;;;;;0.22;0.20;;;;;;;8.76;88.60;100184.97;5033581;28;20057;-86
2021/05/27 06:39:11;;;;;;;0.33;0.30;;;;;;;8.81;88.10;100179.50;5050165;28;20045;-85
2021/05/27 06:41:45;;;;;;;1.08;0.40;;;;;;;8.85;88.31;100177.88;5040751;28;20680;-86
2021/05/27 06:44:13;;;;;;;0.30;0.30;;;;;;;9.08;88.42;100180.16;5037300;28;20379;-86
2021/05/27 06:46:47;;;;;;;0.57;0.32;;;;;;;9.23;87.17;100181.97;5039615;28;20041;-87
2021/05/27 06:49:19;;;;;;;0.60;0.47;;;;;;;9.37;87.13;100182.94;5048779;28;20088;-86
2021/05/27 06:52:19;;;;;;;0.45;0.30;;;;;;;9.43;86.41;100198.09;5053524;28;20409;-86
2021/05/27 06:54:47;;;;;;;0.65;0.40;;;;;;;9.42;86.63;100182.91;5041381;28;20041;-86
2021/05/27 06:57:15;;;;;;;0.30;0.30;;;;;;;9.39;86.48;100199.75;5052495;28;20045;-86
2021/05/27 06:59:47;;;;;;;0.32;0.30;;;;;;;9.36;87.01;100201.13;5038315;28;20065;-86
2021/05/27 07:06:10;;;;;;;0.43;0.30;;;;;;;9.43;86.45;100189.97;5046584;28;20364;-86
2021/05/27 07:09:08;;;;;;;0.40;0.40;;;;;;;9.48;86.43;100210.81;5038153;28;20048;-86
2021/05/27 07:12:10;;;;;;;0.30;0.30;;;;;;;9.66;86.10;100212.84;5053797;28;20060;-85
2021/05/27 07:14:44;;;;;;;0.80;0.60;;;;;;;9.59;85.97;100212.34;5048018;28;20061;-86
2021/05/27 07:17:21;;;;;;;0.35;0.30;;;;;;;9.72;87.02;100202.72;5047428;28;20657;-87
2021/05/27 07:19:54;;;;;;;0.30;0.30;;;;;;;9.80;86.02;100206.75;5048956;28;21361;-86
2021/05/27 07:22:28;;;;;;;0.20;0.20;;;;;;;10.06;86.85;100195.63;5052118;28;20056;-87
2021/05/27 07:25:01;;;;;;;0.20;0.20;;;;;;;10.33;85.74;100214.91;5046574;28;21335;-87
2021/05/27 07:27:35;;;;;;;0.30;0.30;;;;;;;10.00;84.11;100211.19;5046560;28;20068;-86
2021/05/27 07:30:09;;;;;;;0.30;0.30;;;;;;;10.13;84.44;100207.75;5052529;28;20063;-87
2021/05/27 07:32:41;;;;;;;0.20;0.20;;;;;;;9.98;83.05;100221.53;5049847;28;20770;-87
2021/05/27 07:35:15;;;;;;;0.30;0.30;;;;;;;9.77;85.30;100229.06;5052313;28;20064;-87
2021/05/27 07:37:49;;;;;;;0.35;0.20;;;;;;;9.78;84.19;100228.78;5047845;28;20049;-86
2021/05/27 07:40:25;;;;;;;0.25;0.20;;;;;;;9.71;85.72;100225.59;5050104;28;21503;-89
2021/05/27 07:43:25;;;;;;;0.38;0.35;;;;;;;9.77;85.46;100227.16;5050729;28;20056;-87
2021/05/27 07:45:57;;;;;;;0.30;0.30;;;;;;;9.74;85.89;100219.56;5065532;28;20061;-87
2021/05/27 07:48:34;;;;;;;0.20;0.20;;;;;;;9.63;85.71;100242.50;5047042;28;20049;-86
2021/05/27 07:51:04;;;;;;;0.20;0.20;;;;;;;9.45;86.57;100231.22;5050347;28;20045;-87
2021/05/27 07:53:39;;;;;;;0.30;0.30;;;;;;;9.36;85.07;100222.03;5049289;28;20045;-87
2021/05/27 07:56:21;;;;;;;0.35;0.22;;;;;;;9.32;85.44;100240.00;5049567;28;20055;-88
2021/05/27 07:58:54;;;;;;;0.20;0.20;;;;;;;9.30;87.87;100245.72;5049722;28;20063;-88
2021/05/27 08:01:33;;;;;;;0.20;0.20;;;;;;;9.35;87.38;100245.69;5049898;28;20770;-87
2021/05/27 08:04:01;;;;;;;0.22;0.22;;;;;;;8.99;86.86;100207.06;5051661;28;20045;-86
2021/05/27 08:06:34;;;;;;;0.20;0.20;;;;;;;9.12;87.72;100211.09;5025645;28;20821;-87
2021/05/27 08:09:11;;;;;;;0.28;0.28;;;;;;;9.42;88.14;100250.78;5048155;28;20044;-88
2021/05/27 08:11:44;;;;;;;0.43;0.25;;;;;;;9.61;87.77;100260.97;5050351;28;20063;-88
2021/05/27 08:14:21;;;;;;;;;;;;;;;9.70;87.27;100264.72;5051824;28;20053;-88
2021/05/27 08:16:55;;;;;;;0.20;0.20;;;;;;;9.49;87.79;100231.47;5067391;28;19928;-88
2021/05/27 08:19:31;;;;;;;0.20;0.20;;;;;;;9.74;87.95;100260.31;5048157;28;20053;-87
2021/05/27 08:21:59;;;;;;;0.20;0.20;;;;;;;9.64;86.46;100252.25;5049420;28;20416;-88
2021/05/27 08:25:19;;;;;;;0.20;0.20;;;;;;;9.84;87.35;100254.78;5050139;28;20843;-87
2021/05/27 08:28:19;;;;;;;0.28;0.28;;;;;;;9.87;88.35;100264.28;5047409;28;20052;-87
2021/05/27 08:30:47;;;;;;;0.20;0.20;;;;;;;10.02;87.45;100260.63;5049098;28;20052;-87
2021/05/27 08:33:21;;;;;;;0.20;0.20;;;;;;;9.95;85.32;100252.81;5046854;28;20060;-87
2021/05/27 08:36:21;;;;;;;0.40;0.40;;;;;;;9.87;86.55;100278.72;5049136;28;20068;-87
2021/05/27 08:39:06;;;;;;;0.30;0.30;;;;;;;9.92;87.52;100266.97;5049224;28;20056;-87
2021/05/27 08:41:36;;;;;;;0.30;0.30;;;;;;;9.84;86.68;100270.31;5049173;28;20052;-87
2021/05/27 08:44:10;;;;;;;0.20;0.20;;;;;;;9.92;85.90;100275.13;5049096;28;20444;-88
2021/05/27 08:46:40;;;;;;;0.40;0.30;;;;;;;10.10;88.00;100283.69;5048199;28;20786;-88
2021/05/27 08:49:14;;;;;;;0.35;0.32;;;;;;;10.30;84.73;100285.38;5048380;28;20049;-88
2021/05/27 08:52:13;;;;;;;0.30;0.30;;;;;;;10.60;85.72;100286.19;5046999;28;20056;-88
2021/05/27 08:54:47;;;;;;;0.50;0.30;;;;;;;10.63;84.46;100293.75;5048252;28;20061;-87
2021/05/27 08:57:22;;;;;;;0.43;0.40;;;;;;;10.68;84.63;100288.25;5052855;28;20524;-88
2021/05/27 08:59:55;;;;;;;0.30;0.30;;;;;;;10.72;83.46;100289.31;5051310;28;20056;-89
2021/05/27 09:02:31;;;;;;;0.30;0.30;;;;;;;10.60;82.56;100280.75;5045933;28;20056;-88
2021/05/27 09:05:14;;;;;;;0.30;0.30;;;;;;;10.66;86.09;100298.63;5044253;28;20573;-87
2021/05/27 09:07:45;;;;;;;0.30;0.30;;;;;;;10.71;84.75;100304.81;5018561;28;20056;-89
2021/05/27 09:10:14;;;;;;;0.30;0.30;;;;;;;10.69;84.86;100317.91;5049953;28;20051;-87
2021/05/27 09:12:47;;;;;;;0.30;0.30;;;;;;;10.59;84.15;100320.72;5048965;28;21443;-87
2021/05/27 09:15:24;;;;;;;0.20;0.20;;;;;;;10.49;85.21;100337.97;5050592;28;20064;-87
2021/05/27 09:18:03;;;;;;;0.28;0.20;;;;;;;10.21;85.63;100309.66;5053437;28;20052;-88
2021/05/27 09:20:36;;;;;;;0.30;0.30;;;;;;;10.26;85.57;100327.84;5048826;28;20060;-87
2021/05/27 09:23:12;;;;;;;0.40;0.40;;;;;;;10.34;86.26;100344.41;5051555;28;20044;-87
2021/05/27 09:25:41;;;;;;;0.20;0.20;;;;;;;10.51;85.08;100335.00;5050193;28;20061;-86
2021/05/27 09:28:11;;;;;;;0.30;0.30;;;;;;;10.24;86.22;100359.97;5050470;28;20060;-88
2021/05/27 09:30:48;;;;;;;0.30;0.30;;;;;;;10.01;86.33;100357.69;5047390;28;20702;-87
2021/05/27 09:33:30;;;;;;;0.30;0.30;;;;;;;10.06;87.65;100353.31;5045211;28;20068;-85
2021/05/27 09:36:06;;;;;;;0.20;0.20;;;;;;;10.01;87.91;100338.66;5045947;28;20095;-86
2021/05/27 09:38:40;;;;;;;0.28;0.28;;;;;;;10.06;86.96;100356.03;5046493;28;21174;-86
2021/05/27 09:41:20;;;;;;;0.30;0.30;;;;;;;10.28;87.97;100367.25;5048664;28;20053;-85
2021/05/27 09:43:53;;;;;;;0.30;0.30;;;;;;;10.16;87.40;100359.47;5050351;28;20406;-87
2021/05/27 09:46:48;;;;;;;0.20;0.20;;;;;;;10.47;87.65;100378.28;5048392;28;20056;-86
2021/05/27 09:49:55;;;;;;;0.20;0.20;;;;;;;10.63;86.84;100378.13;5047732;28;20056;-87
2021/05/27 09:52:38;;;;;;;0.57;0.32;;;;;;;10.58;84.74;100365.38;5047932;28;20056;-86
2021/05/27 09:55:12;;;;;;;0.35;0.32;;;;;;;10.79;86.91;100378.78;5049959;28;20065;-86
2021/05/27 09:57:43;;;;;;;0.25;0.25;;;;;;;11.04;87.66;100385.84;5046433;28;20060;-86
2021/05/27 10:00:25;;;;;;;0.32;0.32;;;;;;;11.33;86.80;100383.03;5045070;28;20056;-86
2021/05/27 10:03:34;;;;;;;0.22;0.22;;;;;;;11.42;84.51;100396.00;5043794;28;20045;-85
2021/05/27 10:06:04;;;;;;;0.30;0.30;;;;;;;11.48;83.65;100394.84;5047329;28;20048;-86
2021/05/27 10:08:59;;;;;;;0.20;0.20;;;;;;;11.38;83.50;100398.53;5018132;28;20515;-89
2021/05/27 10:11:32;;;;;;;0.30;0.30;;;;;;;11.55;82.71;100395.28;5043454;28;20040;-86
2021/05/27 10:14:07;;;;;;;0.22;0.20;;;;;;;11.70;85.10;100392.34;5042852;28;20064;-86
2021/05/27 10:16:42;;;;;;;0.20;0.20;;;;;;;11.48;83.18;100397.56;5044699;28;20052;-87
2021/05/27 10:19:15;;;;;;;0.20;0.20;;;;;;;11.26;82.12;100407.09;5045122;28;20571;-87
2021/05/27 10:21:48;;;;;;;0.20;0.20;;;;;;;11.12;83.24;100408.91;5044265;28;20566;-86
2021/05/27 10:24:21;;;;;;;0.20;0.20;;;;;;;11.12;82.01;100406.19;5049740;28;20413;-87
2021/05/27 10:26:54;;;;;;;0.20;0.20;;;;;;;10.97;81.90;100405.25;5046091;28;20053;-87
2021/05/27 10:29:27;;;;;;;0.20;0.20;;;;;;;11.11;83.42;100420.91;5046649;28;20060;-87
2021/05/27 10:32:28;;;;;;;1.05;0.20;;;;;;;10.97;82.18;100421.59;5046173;28;20055;-87
2021/05/27 10:35:07;;;;;;;0.30;0.30;;;;;;;11.05;82.33;100425.59;5049548;28;20132;-88
2021/05/27 10:37:47;;;;;;;0.20;0.20;;;;;;;11.48;83.60;100430.28;5047774;28;20057;-86
2021/05/27 10:40:44;;;;;;;0.20;0.20;;;;;;;11.68;84.30;100437.38;5048971;28;20060;-88
2021/05/27 10:43:17;;;;;;;0.20;0.20;;;;;;;11.50;82.62;100426.16;5045748;28;20059;-88
2021/05/27 10:46:07;;;;;;;0.20;0.20;;;;;;;11.86;83.10;100438.47;5047514;28;20059;-88
2021/05/27 10:48:43;;;;;;;0.20;0.20;;;;;;;11.97;80.99;100441.91;5048531;28;20056;-87
2021/05/27 10:51:27;;;;;;;0.30;0.30;;;;;;;12.64;84.11;100417.09;5046634;28;20060;-89
2021/05/27 10:54:02;;;;;;;0.20;0.20;;;;;;;13.22;81.00;100429.41;5042750;28;20048;-89
2021/05/27 10:56:42;;;;;;;0.30;0.30;;;;;;;13.32;77.99;100425.66;5045721;28;20045;-87
2021/05/27 10:59:15;;;;;;;0.30;0.30;;;;;;;13.08;81.69;100437.59;5066798;28;20064;-87
2021/05/27 11:02:03;;;;;;;0.20;0.20;;;;;;;12.70;78.89;100432.25;5047599;28;20064;-87
2021/05/27 11:04:39;;;;;;;0.30;0.30;;;;;;;12.47;80.89;100444.13;5044973;28;20057;-87
2021/05/27 11:07:26;;;;;;;0.20;0.20;;;;;;;12.13;81.67;100445.22;5022424;28;20525;-89
2021/05/27 11:10:00;;;;;;;0.22;0.22;;;;;;;12.38;83.71;100442.09;5048585;28;20492;-89
2021/05/27 11:12:38;;;;;;;0.20;0.20;;;;;;;12.51;80.18;100445.16;5044828;28;20036;-89
2021/05/27 11:15:16;;;;;;;0.30;0.30;;;;;;;13.36;79.56;100445.03;5045533;28;20053;-88
2021/05/27 11:18:07;;;;;;;0.20;0.20;;;;;;;13.97;75.83;100442.09;5046087;28;20075;-87
2021/05/27 11:20:39;;;;;;;0.20;0.20;;;;;;;14.27;72.56;100444.09;5037626;28;20063;-87
2021/05/27 11:23:19;;;;;;;0.30;0.30;;;;;;;14.32;72.97;100442.34;5040624;28;21298;-88
2021/05/27 11:25:46;;;;;;;0.22;0.22;;;;;;;14.42;72.73;100453.06;5044182;28;20045;-88
2021/05/27 11:28:25;;;;;;;0.30;0.30;;;;;;;14.25;74.93;100451.81;5042118;28;20053;-88
2021/05/27 11:30:54;;;;;;;0.20;0.20;;;;;;;13.73;73.53;100434.94;5046921;28;20047;-89
2021/05/27 11:33:30;;;;;;;0.20;0.20;;;;;;;13.96;74.39;100446.72;5040154;28;20682;-88
2021/05/27 11:36:22;;;;;;;0.80;0.30;;;;;;;13.65;73.47;100455.63;5043220;28;20067;-87
2021/05/27 11:39:07;;;;;;;0.20;0.20;;;;;;;13.65;77.25;100461.09;5038968;28;20060;-86
2021/05/27 11:41:45;;;;;;;0.10;0.10;;;;;;;13.66;75.81;100470.91;5040976;28;20049;-88
2021/05/27 11:44:14;;;;;;;0.20;0.20;;;;;;;13.38;75.43;100470.94;5045187;28;20067;-89
2021/05/27 11:46:45;;;;;;;0.20;0.20;;;;;;;13.04;72.81;100479.47;5039788;28;20090;-87
2021/05/27 11:49:18;;;;;;;0.20;0.20;;;;;;;12.82;77.41;100491.06;5044811;28;20501;-88
2021/05/27 11:51:48;;;;;;;0.20;0.20;;;;;;;12.38;75.02;100485.75;5044565;28;20320;-87
2021/05/27 11:54:25;;;;;;;0.20;0.20;;;;;;;11.88;77.48;100501.72;5045178;28;20072;-86
2021/05/27 11:56:52;;;;;;;0.20;0.20;;;;;;;11.16;79.42;100489.75;5041446;28;20539;-86
2021/05/27 11:59:26;;;;;;;0.20;0.20;;;;;;;10.77;82.01;100506.19;5042015;28;20053;-86
2021/05/27 12:02:04;;;;;;;0.20;0.20;;;;;;;10.80;84.72;100517.31;5040343;28;21339;-86
2021/05/27 12:04:36;;;;;;;0.20;0.20;;;;;;;10.29;84.99;100460.53;5040365;28;20068;-86
2021/05/27 12:07:13;;;;;;;0.20;0.20;;;;;;;10.82;84.31;100522.47;5012268;28;21572;-87
2021/05/27 12:09:43;;;;;;;0.20;0.20;;;;;;;10.80;86.23;100498.25;5036516;28;20059;-87
2021/05/27 12:12:21;;;;;;;0.20;0.20;;;;;;;11.05;86.38;100523.63;5041030;28;20049;-86
2021/05/27 12:14:54;;;;;;;;;;;;;;;11.14;83.44;100531.97;5044906;28;20060;-87
2021/05/27 12:17:56;;;;;;;0.20;0.20;;;;;;;11.14;84.85;100538.22;5037170;28;19929;-87
2021/05/27 12:20:39;;;;;;;0.20;0.20;;;;;;;11.12;83.21;100539.66;5041248;28;20056;-87
2021/05/27 12:23:23;;;;;;;0.20;0.20;;;;;;;11.21;86.91;100532.44;5040310;28;20051;-85
2021/05/27 12:26:00;;;;;;;0.30;0.30;;;;;;;11.41;84.93;100536.91;5040931;28;20913;-86
2021/05/27 12:28:33;;;;;;;0.20;0.20;;;;;;;11.10;84.30;100506.44;5038844;28;20059;-85
2021/05/27 12:31:07;;;;;;;0.30;0.30;;;;;;;11.73;86.12;100549.88;5038927;28;20055;-86
2021/05/27 12:34:32;;;;;;;0.30;0.30;;;;;;;11.88;83.66;100559.78;5041405;28;20142;-86
2021/05/27 12:37:08;;;;;;;0.25;0.25;;;;;;;11.88;81.66;100551.59;5040232;28;20056;-85
2021/05/27 12:39:41;;;;;;;0.10;0.10;;;;;;;11.80;79.88;100563.16;5041921;28;20717;-84
2021/05/27 12:42:16;;;;;;;0.30;0.30;;;;;;;12.36;85.10;100561.66;5034351;28;20053;-84
2021/05/27 12:44:49;;;;;;;0.20;0.20;;;;;;;12.39;82.13;100563.00;5039108;28;20056;-86
2021/05/27 12:47:21;;;;;;;0.20;0.20;;;;;;;12.81;82.62;100557.72;5037195;28;20841;-86
2021/05/27 12:49:54;;;;;;;0.30;0.30;;;;;;;13.33;83.62;100561.19;5036618;28;20064;-86
2021/05/27 12:52:41;;;;;;;0.20;0.20;;;;;;;12.92;79.82;100576.34;5040011;28;20063;-84